Time;durP1;ratioP1;P1;durP2;ratioP2;P2;SDS_P1;SDS_P2;PMS_P1;PMS_P2;Temp;Humidity;BMP_temperature;BMP_pressure;BME280_temperature;BME280_humidity;BME280_pressure;Samples;Min_cycle;Max_cycle;Signal;HPM_P1;HPM_P2
2022/09/27 00:01:49;;;;;;;14.13;4.00;;;;;;;10.49;100.00;99150.00;5091219;28;20044;-49
2022/09/27 00:04:16;;;;;;;12.35;3.63;;;;;;;10.38;100.00;99146.06;5083138;28;20040;-46
2022/09/27 00:06:42;;;;;;;12.15;3.80;;;;;;;10.45;100.00;99154.06;5092858;28;20085;-47
2022/09/27 00:09:09;;;;;;;22.42;4.35;;;;;;;10.51;100.00;99158.63;5086227;28;20386;-51
2022/09/27 00:11:39;;;;;;;15.85;3.45;;;;;;;10.48;100.00;99158.19;5084033;28;20452;-47
2022/09/27 00:14:06;;;;;;;10.57;3.20;;;;;;;10.44;100.00;99159.56;5087031;28;20106;-46
2022/09/27 00:16:36;;;;;;;12.95;3.35;;;;;;;10.46;100.00;99162.81;5092593;28;20052;-48
2022/09/27 00:19:07;;;;;;;14.52;3.90;;;;;;;10.51;100.00;99166.56;5086169;28;20048;-49
2022/09/27 00:21:34;;;;;;;12.15;3.38;;;;;;;10.54;100.00;99168.00;5089606;28;20044;-51
2022/09/27 00:24:01;;;;;;;19.67;3.33;;;;;;;10.50;100.00;99166.75;5066639;28;20051;-50
2022/09/27 00:26:28;;;;;;;15.02;3.55;;;;;;;10.44;100.00;99171.00;5070842;28;20043;-51
2022/09/27 00:28:55;;;;;;;19.70;3.60;;;;;;;10.51;100.00;99169.22;5093050;28;20114;-50
2022/09/27 00:31:25;;;;;;;11.65;3.40;;;;;;;10.60;100.00;99177.84;5092690;28;20079;-48
2022/09/27 00:33:52;;;;;;;17.73;4.10;;;;;;;10.51;100.00;99171.88;5092337;28;20040;-45
2022/09/27 00:36:22;;;;;;;17.17;4.28;;;;;;;10.51;100.00;99177.19;5084145;28;20098;-46
2022/09/27 00:38:49;;;;;;;17.30;4.25;;;;;;;10.46;100.00;99179.56;5093246;28;20127;-50
2022/09/27 00:41:20;;;;;;;14.40;5.22;;;;;;;10.35;100.00;99172.13;5085917;28;20036;-47
2022/09/27 00:43:51;;;;;;;13.40;4.28;;;;;;;10.36;100.00;99179.88;5092377;28;20055;-49
2022/09/27 00:46:41;;;;;;;18.92;5.20;;;;;;;10.35;100.00;99180.06;5087537;28;20494;-49
2022/09/27 00:49:39;;;;;;;14.70;5.90;;;;;;;10.28;100.00;99189.78;5091488;28;20044;-50
2022/09/27 00:52:12;;;;;;;16.55;6.28;;;;;;;10.18;100.00;99187.44;5047736;28;20040;-47
2022/09/27 00:54:43;;;;;;;18.85;8.00;;;;;;;10.10;100.00;99183.09;5092404;28;20573;-49
2022/09/27 00:57:10;;;;;;;18.00;7.37;;;;;;;10.10;100.00;99184.94;5090901;28;20085;-49
2022/09/27 00:59:42;;;;;;;19.17;6.85;;;;;;;10.14;100.00;99184.34;5087301;28;20047;-48
2022/09/27 01:02:09;;;;;;;18.20;5.18;;;;;;;10.28;100.00;99192.44;5091088;28;20040;-49
2022/09/27 01:04:38;;;;;;;13.38;4.97;;;;;;;10.26;100.00;99184.69;5087169;28;20494;-50
2022/09/27 01:07:05;;;;;;;14.95;4.82;;;;;;;10.28;100.00;99195.09;5086684;28;20678;-49
2022/09/27 01:09:33;;;;;;;16.95;5.45;;;;;;;10.24;100.00;99185.84;5068552;28;20054;-50
2022/09/27 01:15:11;;;;;;;22.70;11.50;;;;;;;10.06;100.00;99191.59;5085745;27;20429;-47
2022/09/27 01:21:10;;;;;;;22.63;12.23;;;;;;;10.11;100.00;99205.09;5149137;27;19926;-49
2022/09/27 01:24:07;;;;;;;22.05;13.05;;;;;;;10.14;100.00;99202.88;5149535;27;20711;-49
2022/09/27 01:27:14;;;;;;;23.40;12.95;;;;;;;10.19;100.00;99199.69;5142961;27;20049;-46
2022/09/27 01:30:08;;;;;;;26.58;11.60;;;;;;;10.15;100.00;99209.84;5135946;27;20050;-46
2022/09/27 01:32:52;;;;;;;26.17;12.25;;;;;;;10.12;100.00;99212.06;5109369;27;20044;-48
2022/09/27 01:35:48;;;;;;;26.25;11.52;;;;;;;10.13;100.00;99200.44;5132928;27;20043;-46
2022/09/27 01:38:37;;;;;;;25.98;14.60;;;;;;;10.16;100.00;99203.53;5136705;27;20162;-48
2022/09/27 01:41:31;;;;;;;28.35;15.30;;;;;;;10.12;100.00;99204.91;5136721;27;20054;-47
2022/09/27 01:44:30;;;;;;;27.00;15.00;;;;;;;10.10;100.00;99198.16;5131448;27;20058;-47
2022/09/27 01:47:17;;;;;;;20.20;9.30;;;;;;;10.10;100.00;99203.47;5125603;28;20489;-48
2022/09/27 01:49:56;;;;;;;18.48;8.10;;;;;;;10.18;100.00;99206.00;5143904;27;20045;-49
2022/09/27 01:52:31;;;;;;;18.88;6.47;;;;;;;10.08;100.00;99208.97;5096130;27;20408;-46
2022/09/27 01:55:01;;;;;;;15.23;5.65;;;;;;;10.27;100.00;99206.69;5132786;27;20043;-46
2022/09/27 01:57:56;;;;;;;13.55;5.00;;;;;;;10.17;100.00;99209.66;5124102;27;20039;-49
2022/09/27 02:00:25;;;;;;;12.60;4.90;;;;;;;10.07;100.00;99206.50;5129220;27;20054;-47
2022/09/27 02:02:59;;;;;;;14.43;5.07;;;;;;;10.04;100.00;99210.34;5144546;27;20501;-49
2022/09/27 02:05:47;;;;;;;13.07;4.72;;;;;;;10.04;100.00;99205.06;5108725;27;20044;-50
2022/09/27 02:08:40;;;;;;;16.85;5.07;;;;;;;10.13;100.00;99201.28;5101063;28;20412;-46
2022/09/27 02:11:16;;;;;;;15.77;5.50;;;;;;;10.04;100.00;99201.56;5098111;28;20051;-49
2022/09/27 02:13:59;;;;;;;17.27;5.45;;;;;;;10.11;100.00;99207.75;5084789;28;20036;-49
2022/09/27 02:16:58;;;;;;;11.68;4.50;;;;;;;9.95;100.00;99212.28;5104440;28;20044;-49
2022/09/27 02:19:52;;;;;;;17.38;4.97;;;;;;;9.95;100.00;99204.34;5101168;28;20127;-49
2022/09/27 02:22:34;;;;;;;15.10;6.00;;;;;;;10.00;100.00;99214.34;5089558;28;20055;-47
2022/09/27 02:25:22;;;;;;;16.23;7.75;;;;;;;10.06;100.00;99210.97;5102504;28;20086;-46
2022/09/27 02:28:01;;;;;;;24.00;12.75;;;;;;;9.98;100.00;99216.38;5110467;28;20378;-48
2022/09/27 02:30:33;;;;;;;29.00;15.90;;;;;;;9.98;100.00;99213.72;5080912;28;20046;-46
2022/09/27 02:33:14;;;;;;;33.90;19.63;;;;;;;9.94;100.00;99221.22;5106498;28;20508;-48
2022/09/27 02:35:41;;;;;;;35.60;20.67;;;;;;;9.94;100.00;99226.53;5108869;28;20038;-46
2022/09/27 02:38:08;;;;;;;43.67;24.80;;;;;;;9.94;100.00;99223.88;5121980;28;20101;-47
2022/09/27 02:40:43;;;;;;;37.65;22.90;;;;;;;9.85;100.00;99229.47;5099194;28;20047;-45
2022/09/27 02:43:13;;;;;;;37.40;26.10;;;;;;;9.79;100.00;99231.88;5100852;28;20054;-46
2022/09/27 02:46:20;;;;;;;33.53;22.25;;;;;;;9.78;100.00;99240.00;5107916;28;20494;-46
2022/09/27 02:52:12;;;;;;;21.98;12.63;;;;;;;9.87;100.00;99235.41;5074607;27;20938;-46
2022/09/27 03:00:40;;;;;;;17.42;5.82;;;;;;;9.80;100.00;99251.22;5109259;27;20900;-47
2022/09/27 03:03:36;;;;;;;17.10;6.60;;;;;;;9.86;100.00;99252.28;5103222;28;20123;-47
2022/09/27 03:06:08;;;;;;;18.73;6.82;;;;;;;9.81;100.00;99255.53;5108636;28;20040;-48
2022/09/27 03:08:37;;;;;;;16.63;5.65;;;;;;;9.87;100.00;99246.00;5106612;28;20044;-45
2022/09/27 03:11:04;;;;;;;13.48;5.55;;;;;;;9.95;100.00;99256.47;5099522;28;20052;-48
2022/09/27 03:13:33;;;;;;;13.68;6.57;;;;;;;9.94;99.94;99258.31;5105819;28;20059;-48
2022/09/27 03:16:06;;;;;;;15.05;8.07;;;;;;;9.96;100.00;99258.13;5108309;28;20043;-49
2022/09/27 03:18:52;;;;;;;15.40;6.32;;;;;;;9.82;100.00;99251.03;5096793;28;20036;-48
2022/09/27 03:21:38;;;;;;;22.55;12.02;;;;;;;9.84;100.00;99260.44;5105719;28;20074;-45
2022/09/27 03:24:05;;;;;;;31.70;17.08;;;;;;;9.74;99.82;99254.63;5100015;28;20035;-48
2022/09/27 03:26:32;;;;;;;35.65;19.13;;;;;;;9.69;100.00;99254.34;5106808;28;20033;-49
2022/09/27 03:28:59;;;;;;;32.00;21.42;;;;;;;9.56;100.00;99260.28;5100380;28;20086;-46
2022/09/27 03:31:26;;;;;;;44.03;23.40;;;;;;;9.59;100.00;99255.44;5087090;28;20482;-47
2022/09/27 03:34:12;;;;;;;34.72;22.58;;;;;;;9.56;100.00;99261.09;5091555;28;20501;-48
2022/09/27 03:36:39;;;;;;;30.48;20.00;;;;;;;9.40;99.91;99263.94;5107116;28;20043;-46
2022/09/27 03:39:06;;;;;;;28.05;17.63;;;;;;;9.36;100.00;99263.47;5104431;28;20482;-48
2022/09/27 03:41:34;;;;;;;25.85;16.33;;;;;;;9.39;100.00;99270.25;5071818;28;20049;-46
2022/09/27 03:44:00;;;;;;;20.20;10.85;;;;;;;9.28;100.00;99266.22;5082618;28;20043;-46
2022/09/27 03:46:27;;;;;;;15.10;6.93;;;;;;;9.28;100.00;99268.88;5105919;28;20519;-46
2022/09/27 03:48:54;;;;;;;12.13;4.28;;;;;;;9.29;100.00;99269.69;5107296;28;20040;-46
2022/09/27 03:51:20;;;;;;;9.23;2.65;;;;;;;9.19;100.00;99268.13;5056909;28;20081;-46
2022/09/27 03:53:48;;;;;;;12.43;2.80;;;;;;;9.11;100.00;99262.09;5103976;28;20497;-46
2022/09/27 03:56:15;;;;;;;9.75;2.30;;;;;;;8.99;100.00;99257.25;5103715;28;20042;-46
2022/09/27 03:58:41;;;;;;;9.93;2.50;;;;;;;8.95;100.00;99260.41;5096913;28;20059;-46
2022/09/27 04:01:08;;;;;;;12.65;2.63;;;;;;;8.94;100.00;99267.53;5101991;28;20071;-49
2022/09/27 04:03:37;;;;;;;9.60;2.60;;;;;;;8.93;100.00;99271.19;5107923;28;20550;-49
2022/09/27 04:06:25;;;;;;;10.27;2.97;;;;;;;8.89;100.00;99264.59;5084745;28;20041;-49
2022/09/27 04:08:53;;;;;;;8.25;2.35;;;;;;;8.88;100.00;99265.63;5089116;28;20080;-48
2022/09/27 04:11:23;;;;;;;8.00;2.60;;;;;;;8.88;100.00;99265.63;5078579;28;20045;-48
2022/09/27 04:13:49;;;;;;;10.45;3.60;;;;;;;8.88;100.00;99268.25;5074225;28;20053;-47
2022/09/27 04:16:18;;;;;;;11.82;2.97;;;;;;;8.79;100.00;99262.22;5087857;28;20136;-47
2022/09/27 04:18:53;;;;;;;10.23;2.92;;;;;;;8.77;100.00;99269.50;5089651;28;20043;-50
2022/09/27 04:21:40;;;;;;;8.38;2.90;;;;;;;8.75;100.00;99268.88;5087005;28;20501;-48
2022/09/27 04:24:10;;;;;;;10.02;3.20;;;;;;;8.75;100.00;99270.66;5082423;28;20439;-47
2022/09/27 04:26:38;;;;;;;9.15;3.17;;;;;;;8.75;100.00;99276.81;5087567;28;20086;-47
2022/09/27 04:29:11;;;;;;;11.13;3.00;;;;;;;8.82;100.00;99272.44;5082838;28;20044;-48
2022/09/27 04:31:42;;;;;;;11.50;2.60;;;;;;;8.73;100.00;99289.38;5074201;28;20043;-46
2022/09/27 04:37:20;;;;;;;11.38;2.72;;;;;;;8.70;100.00;99284.44;5092335;28;20048;-47
2022/09/27 04:39:49;;;;;;;8.13;2.90;;;;;;;8.71;100.00;99283.41;5091367;28;20032;-48
2022/09/27 04:42:17;;;;;;;8.85;2.70;;;;;;;8.78;100.00;99275.63;5078753;28;20044;-48
2022/09/27 04:44:44;;;;;;;11.73;2.45;;;;;;;8.84;100.00;99280.19;5080827;28;20113;-50
2022/09/27 04:47:11;;;;;;;10.82;2.60;;;;;;;8.82;100.00;99279.53;5073634;28;20044;-48
2022/09/27 04:49:39;;;;;;;11.23;2.90;;;;;;;8.79;100.00;99293.13;5077787;28;20800;-48
2022/09/27 04:52:05;;;;;;;10.88;3.25;;;;;;;8.79;100.00;99295.78;5012030;28;20049;-49
2022/09/27 04:54:32;;;;;;;14.27;3.08;;;;;;;8.81;100.00;99297.22;5050535;28;20045;-50
2022/09/27 04:57:11;;;;;;;10.18;2.60;;;;;;;8.79;100.00;99298.41;5053996;28;20100;-48
2022/09/27 04:59:40;;;;;;;9.85;2.58;;;;;;;8.89;100.00;99291.03;5055642;28;20093;-50
2022/09/27 05:02:07;;;;;;;11.98;2.70;;;;;;;8.89;100.00;99304.28;5093202;28;20044;-47
2022/09/27 05:04:58;;;;;;;11.65;2.60;;;;;;;8.81;100.00;99305.16;5085960;28;20058;-50
2022/09/27 05:07:29;;;;;;;10.15;2.40;;;;;;;8.86;99.94;99306.44;5088952;28;20147;-48
2022/09/27 05:10:02;;;;;;;8.18;2.40;;;;;;;8.88;99.00;99307.94;5051145;28;20061;-48
2022/09/27 05:12:30;;;;;;;8.90;2.38;;;;;;;8.76;100.00;99310.16;5074092;28;20106;-50
2022/09/27 05:14:59;;;;;;;11.02;2.15;;;;;;;8.78;100.00;99312.63;5088668;28;20128;-50
2022/09/27 05:17:46;;;;;;;8.07;2.72;;;;;;;8.81;99.59;99313.09;5090535;28;20524;-49
2022/09/27 05:20:33;;;;;;;12.23;2.50;;;;;;;8.76;99.07;99328.66;5089844;28;20071;-47
2022/09/27 05:23:08;;;;;;;7.78;2.08;;;;;;;8.78;99.15;99333.78;5090579;28;20490;-48
2022/09/27 05:25:35;;;;;;;9.77;2.20;;;;;;;8.86;98.56;99338.19;5088433;28;20044;-47
2022/09/27 05:28:02;;;;;;;9.05;2.15;;;;;;;8.74;99.12;99333.31;5085357;28;20489;-47
2022/09/27 05:30:29;;;;;;;10.10;2.10;;;;;;;8.70;98.93;99334.66;5073173;28;20552;-50
2022/09/27 05:33:04;;;;;;;6.28;1.77;;;;;;;8.73;98.19;99328.19;5069011;28;20048;-47
2022/09/27 05:35:52;;;;;;;10.57;2.00;;;;;;;8.64;98.47;99332.72;5077042;28;20397;-47
2022/09/27 05:38:22;;;;;;;7.43;1.70;;;;;;;8.69;98.14;99333.00;5083604;28;20720;-47
2022/09/27 05:40:51;;;;;;;14.00;2.10;;;;;;;8.72;97.85;99337.13;5085106;28;20041;-47
2022/09/27 05:43:20;;;;;;;8.43;1.63;;;;;;;8.64;98.16;99344.13;5071600;28;20040;-49
2022/09/27 05:45:47;;;;;;;10.65;1.70;;;;;;;8.70;98.37;99339.97;5092984;28;20173;-46
2022/09/27 05:48:17;;;;;;;6.03;1.67;;;;;;;8.63;98.26;99347.75;5090364;28;20038;-48
2022/09/27 05:50:53;;;;;;;9.32;1.73;;;;;;;8.65;98.17;99348.41;5037082;28;21002;-47
2022/09/27 05:53:20;;;;;;;5.38;2.10;;;;;;;8.77;97.03;99342.72;5053311;28;20132;-48
2022/09/27 05:55:48;;;;;;;6.10;1.50;;;;;;;8.69;97.32;99353.34;5081375;28;20044;-47
2022/09/27 05:58:17;;;;;;;5.53;1.50;;;;;;;8.79;97.11;99346.00;5085149;28;20116;-47
2022/09/27 06:00:50;;;;;;;9.15;1.75;;;;;;;8.81;96.38;99349.31;5087586;28;20433;-48
2022/09/27 06:03:39;;;;;;;7.40;2.00;;;;;;;8.64;97.18;99344.13;5071573;28;20090;-49
2022/09/27 06:06:26;;;;;;;7.95;1.65;;;;;;;8.70;96.23;99347.88;5068804;28;20042;-49
2022/09/27 06:08:56;;;;;;;5.97;1.73;;;;;;;8.83;96.36;99340.19;5088882;28;20055;-46
2022/09/27 06:11:26;;;;;;;11.80;2.00;;;;;;;8.79;95.82;99346.00;5077072;28;20131;-46
2022/09/27 06:13:53;;;;;;;8.70;1.60;;;;;;;8.86;95.96;99351.41;5090369;28;20052;-47
2022/09/27 06:16:20;;;;;;;9.88;2.30;;;;;;;8.83;96.47;99353.41;5084831;28;20051;-46
2022/09/27 06:18:47;;;;;;;7.93;1.60;;;;;;;8.74;96.42;99361.59;5077253;28;20541;-47
2022/09/27 06:21:15;;;;;;;6.55;1.65;;;;;;;8.80;96.24;99348.50;5083400;28;20229;-46
2022/09/27 06:23:48;;;;;;;9.18;1.80;;;;;;;8.87;95.04;99361.00;5075935;28;20048;-46
2022/09/27 06:26:26;;;;;;;10.18;2.00;;;;;;;8.89;95.69;99361.63;5062204;28;20040;-47
2022/09/27 06:29:12;;;;;;;8.30;1.80;;;;;;;8.91;95.67;99357.00;5064280;28;20051;-49
2022/09/27 06:31:45;;;;;;;5.55;1.55;;;;;;;8.94;95.12;99365.38;5093222;28;20050;-49
2022/09/27 06:34:26;;;;;;;5.30;1.85;;;;;;;8.91;95.70;99367.56;5088052;28;20047;-49
2022/09/27 06:36:53;;;;;;;5.90;1.65;;;;;;;8.92;96.47;99359.47;5086751;28;20051;-49
2022/09/27 06:39:20;;;;;;;7.18;2.10;;;;;;;8.93;96.71;99365.56;5081820;28;20055;-47
2022/09/27 06:42:02;;;;;;;11.45;1.90;;;;;;;9.08;95.71;99365.59;5077697;28;20127;-49
2022/09/27 06:44:50;;;;;;;5.50;1.83;;;;;;;9.05;95.96;99369.44;5090676;28;20043;-48
2022/09/27 06:47:37;;;;;;;9.68;2.03;;;;;;;9.09;96.55;99369.91;5077956;28;20040;-47
2022/09/27 06:50:24;;;;;;;8.02;1.83;;;;;;;8.99;95.36;99370.97;5088978;28;20062;-50
2022/09/27 06:52:51;;;;;;;10.95;2.00;;;;;;;9.02;95.53;99369.78;5047033;28;20164;-49
2022/09/27 06:55:18;;;;;;;8.30;1.90;;;;;;;9.13;95.42;99372.03;5088801;28;20048;-50
2022/09/27 07:00:32;;;;;;;11.95;2.25;;;;;;;9.02;95.40;99378.56;5074955;28;20094;-49
2022/09/27 07:03:22;;;;;;;12.43;2.00;;;;;;;9.06;93.93;99386.97;5064842;28;20060;-46
2022/09/27 07:06:17;;;;;;;6.93;1.88;;;;;;;8.96;94.99;99392.47;5066573;28;20494;-48
2022/09/27 07:08:51;;;;;;;6.28;2.17;;;;;;;9.10;95.31;99398.03;5064752;28;20040;-52
2022/09/27 07:11:19;;;;;;;8.18;2.10;;;;;;;9.10;95.44;99409.44;5075295;28;20385;-52
2022/09/27 07:13:45;;;;;;;11.23;2.00;;;;;;;9.05;94.78;99409.13;5068250;28;20067;-52
2022/09/27 07:16:13;;;;;;;7.60;1.98;;;;;;;8.93;95.00;99408.72;5072081;28;20131;-51
2022/09/27 07:18:41;;;;;;;5.22;1.80;;;;;;;8.97;95.91;99412.66;5071242;28;20111;-51
2022/09/27 07:21:09;;;;;;;4.53;1.45;;;;;;;8.98;95.04;99406.34;5072115;28;20055;-51
2022/09/27 07:23:36;;;;;;;10.32;1.85;;;;;;;8.91;95.95;99417.81;5072742;28;20122;-51
2022/09/27 07:26:06;;;;;;;5.85;1.45;;;;;;;8.87;95.70;99421.81;5070333;28;20047;-48
2022/09/27 07:28:33;;;;;;;5.82;1.48;;;;;;;8.91;97.08;99418.63;5078522;28;20456;-49
2022/09/27 07:31:02;;;;;;;9.95;1.77;;;;;;;8.92;96.86;99414.19;5071537;28;20440;-46
2022/09/27 07:33:30;;;;;;;5.15;1.60;;;;;;;8.89;96.99;99420.63;5068105;28;20099;-50
2022/09/27 07:35:59;;;;;;;8.65;1.80;;;;;;;8.98;97.42;99416.13;5068485;28;20049;-47
2022/09/27 07:38:26;;;;;;;5.35;1.55;;;;;;;8.95;99.12;99425.25;5065413;28;20052;-48
2022/09/27 07:40:53;;;;;;;7.10;2.13;;;;;;;9.04;97.67;99418.06;5069390;28;20076;-49
2022/09/27 07:43:19;;;;;;;10.65;2.17;;;;;;;9.11;97.30;99424.28;5072753;28;20048;-48
2022/09/27 07:45:48;;;;;;;6.53;1.77;;;;;;;9.06;97.71;99420.53;5055507;28;20628;-51
2022/09/27 07:48:35;;;;;;;9.02;1.80;;;;;;;9.22;98.80;99420.41;5083016;28;20444;-48
2022/09/27 07:51:14;;;;;;;7.18;1.70;;;;;;;9.23;96.32;99432.63;5041227;28;20505;-47
2022/09/27 07:53:48;;;;;;;13.43;1.55;;;;;;;9.20;95.96;99436.47;5088683;28;20396;-48
2022/09/27 07:56:34;;;;;;;6.13;1.30;;;;;;;9.16;96.38;99437.00;5072569;28;20132;-47
2022/09/27 07:59:03;;;;;;;7.15;1.65;;;;;;;9.35;96.46;99436.53;5085969;28;20049;-48
2022/09/27 08:01:29;;;;;;;4.40;1.35;;;;;;;9.35;95.55;99454.19;5064996;28;20068;-47
2022/09/27 08:03:57;;;;;;;8.88;1.60;;;;;;;9.39;95.52;99450.22;5071813;28;20040;-46
2022/09/27 08:06:24;;;;;;;8.38;1.60;;;;;;;9.30;95.35;99449.47;5075107;28;20048;-47
2022/09/27 08:08:52;;;;;;;10.00;1.80;;;;;;;9.20;95.29;99454.16;5089337;28;20063;-49
2022/09/27 08:11:20;;;;;;;4.30;1.27;;;;;;;9.23;95.07;99446.69;5073145;28;20409;-51
2022/09/27 08:13:51;;;;;;;4.63;1.58;;;;;;;9.18;94.74;99450.88;5080536;28;20402;-47
2022/09/27 08:16:21;;;;;;;5.85;1.35;;;;;;;9.33;95.87;99453.56;5077242;28;20444;-47
2022/09/27 08:19:08;;;;;;;5.15;1.30;;;;;;;9.38;94.75;99461.78;5066640;28;20032;-47
2022/09/27 08:21:43;;;;;;;9.15;1.70;;;;;;;9.37;94.99;99463.63;5085826;28;20040;-51
2022/09/27 08:24:13;;;;;;;4.10;1.50;;;;;;;9.43;94.64;99462.09;5079802;28;20068;-48
2022/09/27 08:27:01;;;;;;;4.07;1.40;;;;;;;9.60;94.29;99463.63;5063734;28;20119;-50
2022/09/27 08:29:44;;;;;;;4.57;1.35;;;;;;;9.57;94.63;99469.25;5076385;28;20401;-50
2022/09/27 08:32:11;;;;;;;5.65;1.30;;;;;;;9.59;93.76;99467.25;5086254;28;20047;-50
2022/09/27 08:34:39;;;;;;;5.50;1.60;;;;;;;9.65;93.34;99464.91;5086895;28;20450;-50
2022/09/27 08:37:05;;;;;;;4.65;1.50;;;;;;;9.68;92.71;99473.31;5081676;28;20452;-49
2022/09/27 08:39:32;;;;;;;7.53;1.75;;;;;;;9.64;93.22;99474.69;5087631;28;20060;-51
2022/09/27 08:45:07;;;;;;;4.68;1.63;;;;;;;9.63;93.10;99478.31;5072112;27;20206;-48
2022/09/27 08:47:42;;;;;;;5.22;1.42;;;;;;;9.59;92.99;99477.84;5067934;28;20076;-49
2022/09/27 08:50:37;;;;;;;8.75;2.03;;;;;;;9.71;94.81;99480.88;5064184;28;20511;-46
2022/09/27 08:53:29;;;;;;;6.07;1.60;;;;;;;9.71;94.36;99482.72;5015189;28;20043;-49
2022/09/27 08:55:59;;;;;;;7.65;1.80;;;;;;;9.73;92.37;99478.06;5067067;28;20135;-49
2022/09/27 08:58:32;;;;;;;4.60;1.73;;;;;;;9.63;93.95;99480.97;5066638;28;20157;-48
2022/09/27 09:01:03;;;;;;;8.43;1.88;;;;;;;9.76;94.41;99477.69;5064734;28;20413;-47
2022/09/27 09:03:42;;;;;;;5.18;2.17;;;;;;;9.77;93.95;99477.53;5068023;28;20040;-49
2022/09/27 09:06:22;;;;;;;5.68;2.20;;;;;;;9.61;95.63;99486.44;5065603;28;20051;-50
2022/09/27 09:09:18;;;;;;;8.98;2.50;;;;;;;9.82;94.93;99484.09;5068662;28;20048;-50
2022/09/27 09:12:54;;;;;;;8.95;2.78;;;;;;;9.82;95.27;99470.84;5068066;28;20044;-49
2022/09/27 09:15:53;;;;;;;8.73;3.03;;;;;;;9.80;94.38;99474.53;5061150;28;20044;-47
2022/09/27 09:18:52;;;;;;;7.95;2.80;;;;;;;9.98;96.51;99482.09;5056209;28;20037;-48
2022/09/27 09:21:54;;;;;;;;;;;;;;;9.95;94.99;99471.06;5056833;28;20391;-51
2022/09/27 09:24:48;;;;;;;8.98;3.00;;;;;;;9.92;95.48;99480.19;5043835;28;19928;-47
2022/09/27 09:27:32;;;;;;;7.32;3.38;;;;;;;10.08;95.53;99473.91;5045775;28;20504;-46
2022/09/27 09:30:20;;;;;;;11.13;3.50;;;;;;;10.01;94.88;99470.34;5069209;28;20048;-58
2022/09/27 09:33:07;;;;;;;;;;;;;;;10.13;95.75;99476.84;5055503;28;20429;-58
2022/09/27 09:35:49;;;;;;;7.93;3.47;;;;;;;10.16;93.19;99475.66;5063381;28;19920;-58
2022/09/27 09:38:33;;;;;;;10.30;3.70;;;;;;;10.05;92.89;99470.81;5072877;28;20043;-59
2022/09/27 09:41:10;;;;;;;13.25;3.70;;;;;;;10.22;93.71;99471.44;5064306;28;20067;-58
2022/09/27 09:43:51;;;;;;;13.00;3.38;;;;;;;10.33;92.63;99468.38;5085045;28;20063;-58
2022/09/27 09:46:34;;;;;;;11.13;3.00;;;;;;;10.34;90.60;99454.94;5069468;28;20045;-58
2022/09/27 09:49:17;;;;;;;7.47;3.42;;;;;;;10.41;90.46;99462.16;5086569;28;20052;-59
2022/09/27 09:51:50;;;;;;;7.43;2.90;;;;;;;10.82;88.72;99458.97;4998464;28;20042;-59
2022/09/27 09:54:25;;;;;;;8.57;2.85;;;;;;;10.82;87.79;99456.31;5067511;28;20504;-58
2022/09/27 09:57:05;;;;;;;8.82;3.25;;;;;;;11.11;91.60;99450.09;5043404;28;20334;-58
2022/09/27 09:59:44;;;;;;;9.73;3.38;;;;;;;11.18;84.83;99453.63;5058343;28;20044;-58
2022/09/27 10:02:34;;;;;;;7.47;2.70;;;;;;;12.02;82.02;99454.75;5041468;28;20053;-58
2022/09/27 10:05:15;;;;;;;5.93;2.80;;;;;;;12.67;79.82;99447.31;5055191;28;20390;-58
2022/09/27 10:07:47;;;;;;;7.93;2.95;;;;;;;12.41;83.71;99443.53;5073380;28;20068;-58
2022/09/27 10:10:16;;;;;;;7.50;2.85;;;;;;;12.06;82.14;99443.56;5067230;28;20052;-58
2022/09/27 10:13:03;;;;;;;8.23;2.70;;;;;;;11.78;81.29;99446.19;5059930;28;20040;-57
2022/09/27 10:15:35;;;;;;;8.70;2.60;;;;;;;11.48;82.61;99451.69;5066537;28;20064;-57
2022/09/27 10:18:03;;;;;;;6.78;2.40;;;;;;;11.23;84.04;99455.75;5066546;28;20049;-58
2022/09/27 10:23:15;;;;;;;6.45;2.70;;;;;;;10.52;86.62;99449.25;5095023;27;20396;-57
2022/09/27 10:26:03;;;;;;;6.93;2.40;;;;;;;10.35;88.41;99445.97;5105045;28;20130;-57
2022/09/27 10:28:50;;;;;;;7.00;2.33;;;;;;;10.43;87.12;99449.53;5109639;28;20048;-57
2022/09/27 10:31:22;;;;;;;5.78;2.33;;;;;;;10.47;87.83;99442.84;5102552;28;20051;-58
2022/09/27 10:34:00;;;;;;;5.40;2.28;;;;;;;10.41;88.17;99439.13;5092678;28;20079;-57
2022/09/27 10:36:34;;;;;;;8.63;2.80;;;;;;;10.38;89.72;99442.94;5087084;28;20052;-57
2022/09/27 10:39:04;;;;;;;10.13;2.88;;;;;;;10.52;90.61;99445.78;5070371;28;20097;-56
2022/09/27 10:41:40;;;;;;;11.23;3.28;;;;;;;10.42;90.58;99442.59;5066622;28;20048;-57
2022/09/27 10:44:24;;;;;;;9.30;3.33;;;;;;;10.53;91.45;99442.94;5088342;28;20048;-57
2022/09/27 10:47:08;;;;;;;9.05;3.63;;;;;;;10.64;92.15;99440.81;5084876;28;20120;-57
2022/09/27 10:49:43;;;;;;;12.05;4.07;;;;;;;10.69;92.65;99441.91;5088643;28;20067;-57
2022/09/27 10:52:23;;;;;;;10.98;4.10;;;;;;;10.44;91.62;99445.88;5001667;28;20040;-57
2022/09/27 10:54:56;;;;;;;10.63;4.30;;;;;;;10.53;92.23;99448.25;5085188;28;20045;-57
2022/09/27 10:57:27;;;;;;;11.50;3.90;;;;;;;10.52;92.20;99449.25;5087983;28;20451;-55
2022/09/27 10:59:58;;;;;;;9.23;3.58;;;;;;;10.45;89.88;99445.69;5086261;28;20452;-57
2022/09/27 11:02:30;;;;;;;7.57;3.65;;;;;;;10.26;90.91;99446.22;5087237;28;20117;-56
2022/09/27 11:07:51;;;;;;;10.30;4.20;;;;;;;10.18;91.22;99442.66;5110430;27;20384;-58
2022/09/27 11:10:27;;;;;;;11.93;3.97;;;;;;;10.12;92.05;99451.34;5094929;28;20119;-57
2022/09/27 11:13:05;;;;;;;8.50;3.90;;;;;;;10.17;93.02;99445.50;5116901;28;20047;-60
2022/09/27 11:15:58;;;;;;;10.15;4.28;;;;;;;10.35;93.59;99442.50;5126352;27;20043;-46
2022/09/27 11:18:50;;;;;;;11.43;4.53;;;;;;;10.57;92.59;99440.75;5129291;27;20040;-46
2022/09/27 11:21:34;;;;;;;8.50;4.07;;;;;;;10.80;89.72;99440.59;5110265;28;20397;-46
2022/09/27 11:24:30;;;;;;;10.93;4.18;;;;;;;11.04;88.56;99439.44;5115940;28;20050;-46
2022/09/27 11:27:33;;;;;;;11.10;4.18;;;;;;;11.27;86.66;99433.91;5104078;27;20490;-46
2022/09/27 11:30:08;;;;;;;11.52;4.22;;;;;;;11.22;87.05;99435.50;5115672;28;20846;-46
2022/09/27 11:33:25;;;;;;;11.73;4.15;;;;;;;11.23;86.03;99431.84;5129351;28;20108;-46
2022/09/27 11:36:20;;;;;;;10.55;3.90;;;;;;;11.14;85.29;99429.31;5122444;27;20059;-46
2022/09/27 11:39:26;;;;;;;11.10;3.38;;;;;;;10.81;85.62;99433.47;5129860;28;20565;-47
2022/09/27 11:42:34;;;;;;;9.30;3.60;;;;;;;10.86;86.51;99423.94;5108341;28;20087;-46
2022/09/27 11:45:19;;;;;;;7.82;3.83;;;;;;;11.03;85.28;99429.81;5119004;28;20122;-47
2022/09/27 11:48:17;;;;;;;11.10;4.28;;;;;;;10.98;85.55;99426.09;5127574;27;20050;-50
2022/09/27 11:51:21;;;;;;;10.02;4.03;;;;;;;10.95;84.86;99412.19;5090636;27;20048;-50
2022/09/27 11:56:59;;;;;;;9.52;4.22;;;;;;;11.50;84.52;99414.31;5065829;28;20419;-46
2022/09/27 12:00:01;;;;;;;9.10;3.70;;;;;;;11.66;82.09;99408.72;5070017;28;20111;-48
2022/09/27 12:03:20;;;;;;;8.70;3.85;;;;;;;11.79;82.61;99409.81;5115009;27;20346;-49
2022/09/27 12:09:15;;;;;;;8.75;2.50;;;;;;;11.31;79.37;99407.81;5102372;27;20362;-46
2022/09/27 12:11:50;;;;;;;7.53;2.83;;;;;;;11.16;83.16;99412.38;5108643;28;20070;-45
2022/09/27 12:14:34;;;;;;;6.05;2.60;;;;;;;11.18;82.95;99405.06;5106257;28;20040;-46
2022/09/27 12:17:04;;;;;;;5.60;2.17;;;;;;;11.30;80.76;99408.84;5110531;28;20036;-45
2022/09/27 12:19:37;;;;;;;8.73;3.10;;;;;;;11.41;81.65;99410.97;5083998;28;20080;-46
2022/09/27 12:22:15;;;;;;;8.40;2.95;;;;;;;11.29;83.30;99399.22;5101480;28;20052;-46
2022/09/27 12:24:45;;;;;;;8.70;3.63;;;;;;;11.06;81.60;99413.53;5083895;28;20055;-47
2022/09/27 12:27:42;;;;;;;13.13;3.50;;;;;;;11.25;82.93;99403.28;5109397;28;20111;-46
2022/09/27 12:30:14;;;;;;;;;;;;;;;11.23;82.90;99402.66;5105544;28;20405;-46
2022/09/27 12:33:20;;;;;;;9.38;3.38;;;;;;;11.07;84.13;99417.00;5109015;28;19920;-47
2022/09/27 12:35:53;;;;;;;6.53;3.55;;;;;;;11.01;84.39;99410.63;5087394;28;20125;-46
2022/09/27 12:38:50;;;;;;;10.40;5.25;;;;;;;11.08;85.55;99408.03;5108096;28;20032;-46
2022/09/27 12:41:21;;;;;;;14.88;6.95;;;;;;;11.19;88.31;99410.19;5102105;28;20039;-45
2022/09/27 12:44:04;;;;;;;6.13;2.42;;;;;;;10.79;84.09;99422.19;5110079;28;20054;-46
2022/09/27 12:47:01;;;;;;;7.78;2.55;;;;;;;10.56;84.52;99415.22;5104588;28;20040;-45
2022/09/27 12:52:27;;;;;;;8.32;2.50;;;;;;;10.62;88.10;99421.63;5038761;27;20379;-46
2022/09/27 12:55:36;;;;;;;7.15;2.90;;;;;;;10.65;86.46;99429.22;5129571;28;20092;-45